sensor_id;sensor_type;location;lat;lon;timestamp;P1;durP1;ratioP1;P2;durP2;ratioP2
37641;SDS011;23486;51.956;5.888;2023-07-20T00:01:11;7.07;;;2.38;;
37641;SDS011;23486;51.956;5.888;2023-07-20T00:03:37;6.82;;;3.25;;
37641;SDS011;23486;51.956;5.888;2023-07-20T00:06:02;6.32;;;2.95;;
37641;SDS011;23486;51.956;5.888;2023-07-20T00:08:29;5.93;;;3.20;;
37641;SDS011;23486;51.956;5.888;2023-07-20T00:10:55;6.95;;;4.47;;
37641;SDS011;23486;51.956;5.888;2023-07-20T00:13:21;7.18;;;4.30;;
37641;SDS011;23486;51.956;5.888;2023-07-20T00:15:46;5.05;;;3.13;;
37641;SDS011;23486;51.956;5.888;2023-07-20T00:18:12;6.43;;;4.32;;
37641;SDS011;23486;51.956;5.888;2023-07-20T00:20:38;5.60;;;3.03;;
37641;SDS011;23486;51.956;5.888;2023-07-20T00:23:04;7.78;;;3.30;;
37641;SDS011;23486;51.956;5.888;2023-07-20T00:25:30;6.60;;;4.10;;
37641;SDS011;23486;51.956;5.888;2023-07-20T00:27:55;7.40;;;4.28;;
37641;SDS011;23486;51.956;5.888;2023-07-20T00:30:21;6.80;;;3.40;;
37641;SDS011;23486;51.956;5.888;2023-07-20T00:32:47;9.45;;;4.28;;
37641;SDS011;23486;51.956;5.888;2023-07-20T00:35:12;9.05;;;3.80;;
37641;SDS011;23486;51.956;5.888;2023-07-20T00:37:39;7.10;;;3.78;;
37641;SDS011;23486;51.956;5.888;2023-07-20T00:40:05;7.88;;;4.80;;
37641;SDS011;23486;51.956;5.888;2023-07-20T00:42:34;6.68;;;3.53;;
37641;SDS011;23486;51.956;5.888;2023-07-20T00:45:07;7.97;;;5.22;;
37641;SDS011;23486;51.956;5.888;2023-07-20T00:47:32;10.73;;;5.10;;
37641;SDS011;23486;51.956;5.888;2023-07-20T00:49:58;8.95;;;3.15;;
37641;SDS011;23486;51.956;5.888;2023-07-20T00:52:24;4.43;;;2.95;;
37641;SDS011;23486;51.956;5.888;2023-07-20T00:54:52;6.03;;;3.58;;
37641;SDS011;23486;51.956;5.888;2023-07-20T00:57:21;4.40;;;2.47;;
37641;SDS011;23486;51.956;5.888;2023-07-20T00:59:48;6.63;;;3.70;;
37641;SDS011;23486;51.956;5.888;2023-07-20T01:02:13;4.40;;;2.88;;
37641;SDS011;23486;51.956;5.888;2023-07-20T01:04:39;6.65;;;3.20;;
37641;SDS011;23486;51.956;5.888;2023-07-20T01:09:42;7.30;;;3.88;;
37641;SDS011;23486;51.956;5.888;2023-07-20T01:12:42;6.57;;;3.42;;
37641;SDS011;23486;51.956;5.888;2023-07-20T01:15:08;4.38;;;2.63;;
37641;SDS011;23486;51.956;5.888;2023-07-20T01:17:35;4.82;;;2.75;;
37641;SDS011;23486;51.956;5.888;2023-07-20T01:20:01;7.95;;;3.28;;
37641;SDS011;23486;51.956;5.888;2023-07-20T01:22:33;6.57;;;3.20;;
37641;SDS011;23486;51.956;5.888;2023-07-20T01:33:35;5.53;;;3.08;;
37641;SDS011;23486;51.956;5.888;2023-07-20T01:36:01;5.75;;;3.50;;
37641;SDS011;23486;51.956;5.888;2023-07-20T01:38:28;7.80;;;3.30;;
37641;SDS011;23486;51.956;5.888;2023-07-20T01:40:54;4.35;;;2.75;;
37641;SDS011;23486;51.956;5.888;2023-07-20T01:43:20;7.00;;;3.45;;
37641;SDS011;23486;51.956;5.888;2023-07-20T01:45:47;5.53;;;2.50;;
37641;SDS011;23486;51.956;5.888;2023-07-20T01:48:12;5.88;;;2.55;;
37641;SDS011;23486;51.956;5.888;2023-07-20T01:50:38;4.40;;;2.40;;
37641;SDS011;23486;51.956;5.888;2023-07-20T01:53:04;5.32;;;3.28;;
37641;SDS011;23486;51.956;5.888;2023-07-20T01:55:29;6.18;;;3.40;;
37641;SDS011;23486;51.956;5.888;2023-07-20T01:57:55;4.53;;;2.60;;
37641;SDS011;23486;51.956;5.888;2023-07-20T02:00:21;6.57;;;3.55;;
37641;SDS011;23486;51.956;5.888;2023-07-20T02:02:49;7.13;;;4.20;;
37641;SDS011;23486;51.956;5.888;2023-07-20T02:05:15;7.15;;;3.70;;
37641;SDS011;23486;51.956;5.888;2023-07-20T02:07:41;5.70;;;3.20;;
37641;SDS011;23486;51.956;5.888;2023-07-20T02:10:07;4.57;;;2.92;;
37641;SDS011;23486;51.956;5.888;2023-07-20T02:12:33;4.85;;;2.95;;
37641;SDS011;23486;51.956;5.888;2023-07-20T02:14:58;4.55;;;2.40;;
37641;SDS011;23486;51.956;5.888;2023-07-20T02:17:24;3.92;;;1.88;;
37641;SDS011;23486;51.956;5.888;2023-07-20T02:19:52;4.60;;;1.75;;
37641;SDS011;23486;51.956;5.888;2023-07-20T02:22:18;4.05;;;2.10;;
37641;SDS011;23486;51.956;5.888;2023-07-20T02:24:44;7.13;;;2.35;;
37641;SDS011;23486;51.956;5.888;2023-07-20T02:27:09;5.38;;;2.20;;
37641;SDS011;23486;51.956;5.888;2023-07-20T02:29:35;4.40;;;2.30;;
37641;SDS011;23486;51.956;5.888;2023-07-20T02:32:01;3.05;;;1.30;;
37641;SDS011;23486;51.956;5.888;2023-07-20T02:34:27;3.35;;;1.38;;
37641;SDS011;23486;51.956;5.888;2023-07-20T02:36:52;3.45;;;1.75;;
37641;SDS011;23486;51.956;5.888;2023-07-20T02:39:21;3.65;;;1.67;;
37641;SDS011;23486;51.956;5.888;2023-07-20T02:41:47;5.15;;;1.67;;
37641;SDS011;23486;51.956;5.888;2023-07-20T02:44:13;3.92;;;1.60;;
37641;SDS011;23486;51.956;5.888;2023-07-20T02:46:39;3.85;;;1.50;;
37641;SDS011;23486;51.956;5.888;2023-07-20T02:49:05;3.60;;;1.13;;
37641;SDS011;23486;51.956;5.888;2023-07-20T02:51:31;4.05;;;1.70;;
37641;SDS011;23486;51.956;5.888;2023-07-20T02:53:56;4.05;;;1.65;;
37641;SDS011;23486;51.956;5.888;2023-07-20T02:56:22;2.90;;;1.42;;
37641;SDS011;23486;51.956;5.888;2023-07-20T02:58:48;6.05;;;1.60;;
37641;SDS011;23486;51.956;5.888;2023-07-20T03:01:13;3.17;;;1.30;;
37641;SDS011;23486;51.956;5.888;2023-07-20T03:03:40;4.15;;;1.52;;
37641;SDS011;23486;51.956;5.888;2023-07-20T03:06:11;4.82;;;1.17;;
37641;SDS011;23486;51.956;5.888;2023-07-20T03:08:38;4.05;;;1.30;;
37641;SDS011;23486;51.956;5.888;2023-07-20T03:11:03;3.38;;;1.27;;
37641;SDS011;23486;51.956;5.888;2023-07-20T03:13:29;2.83;;;1.10;;
37641;SDS011;23486;51.956;5.888;2023-07-20T03:15:55;3.03;;;1.20;;
37641;SDS011;23486;51.956;5.888;2023-07-20T03:18:20;3.30;;;1.00;;
37641;SDS011;23486;51.956;5.888;2023-07-20T03:20:46;2.80;;;1.08;;
37641;SDS011;23486;51.956;5.888;2023-07-20T03:23:11;2.60;;;1.00;;
37641;SDS011;23486;51.956;5.888;2023-07-20T03:25:37;2.20;;;0.88;;
37641;SDS011;23486;51.956;5.888;2023-07-20T03:28:03;2.70;;;0.95;;
37641;SDS011;23486;51.956;5.888;2023-07-20T03:30:29;2.30;;;1.10;;
37641;SDS011;23486;51.956;5.888;2023-07-20T03:32:54;3.95;;;1.42;;
37641;SDS011;23486;51.956;5.888;2023-07-20T03:35:20;2.92;;;1.48;;
37641;SDS011;23486;51.956;5.888;2023-07-20T03:37:46;2.83;;;1.10;;
37641;SDS011;23486;51.956;5.888;2023-07-20T03:40:11;2.58;;;0.90;;
37641;SDS011;23486;51.956;5.888;2023-07-20T03:42:37;3.00;;;0.80;;
37641;SDS011;23486;51.956;5.888;2023-07-20T03:45:03;3.92;;;1.00;;
37641;SDS011;23486;51.956;5.888;2023-07-20T03:47:31;2.78;;;0.90;;
37641;SDS011;23486;51.956;5.888;2023-07-20T03:49:57;2.78;;;1.20;;
37641;SDS011;23486;51.956;5.888;2023-07-20T03:52:23;2.72;;;0.98;;
37641;SDS011;23486;51.956;5.888;2023-07-20T03:54:49;2.22;;;0.85;;
37641;SDS011;23486;51.956;5.888;2023-07-20T03:57:16;2.60;;;1.00;;
37641;SDS011;23486;51.956;5.888;2023-07-20T03:59:44;2.20;;;0.88;;
37641;SDS011;23486;51.956;5.888;2023-07-20T04:02:11;2.65;;;0.80;;
37641;SDS011;23486;51.956;5.888;2023-07-20T04:04:37;2.15;;;0.90;;
37641;SDS011;23486;51.956;5.888;2023-07-20T04:07:02;2.47;;;1.08;;
37641;SDS011;23486;51.956;5.888;2023-07-20T04:09:28;2.40;;;1.00;;
37641;SDS011;23486;51.956;5.888;2023-07-20T04:11:54;2.85;;;1.55;;
37641;SDS011;23486;51.956;5.888;2023-07-20T04:14:20;3.78;;;1.60;;
37641;SDS011;23486;51.956;5.888;2023-07-20T04:16:46;6.35;;;3.90;;
37641;SDS011;23486;51.956;5.888;2023-07-20T04:19:12;5.05;;;3.53;;
37641;SDS011;23486;51.956;5.888;2023-07-20T04:21:41;7.05;;;2.75;;
37641;SDS011;23486;51.956;5.888;2023-07-20T04:24:06;8.30;;;3.55;;
37641;SDS011;23486;51.956;5.888;2023-07-20T04:26:32;5.22;;;2.33;;
37641;SDS011;23486;51.956;5.888;2023-07-20T04:28:58;5.53;;;2.75;;
37641;SDS011;23486;51.956;5.888;2023-07-20T04:31:24;5.03;;;2.33;;
37641;SDS011;23486;51.956;5.888;2023-07-20T04:33:50;4.53;;;2.00;;
37641;SDS011;23486;51.956;5.888;2023-07-20T04:36:16;3.42;;;1.55;;
37641;SDS011;23486;51.956;5.888;2023-07-20T04:38:44;4.43;;;2.08;;
37641;SDS011;23486;51.956;5.888;2023-07-20T04:41:11;4.15;;;2.20;;
37641;SDS011;23486;51.956;5.888;2023-07-20T04:43:40;5.32;;;2.25;;
37641;SDS011;23486;51.956;5.888;2023-07-20T04:46:06;4.63;;;1.85;;
37641;SDS011;23486;51.956;5.888;2023-07-20T04:48:32;3.20;;;1.60;;
37641;SDS011;23486;51.956;5.888;2023-07-20T04:50:58;3.42;;;2.40;;
37641;SDS011;23486;51.956;5.888;2023-07-20T04:53:23;3.25;;;1.95;;
37641;SDS011;23486;51.956;5.888;2023-07-20T04:55:50;3.42;;;1.45;;
37641;SDS011;23486;51.956;5.888;2023-07-20T04:58:16;2.58;;;1.40;;
37641;SDS011;23486;51.956;5.888;2023-07-20T05:00:47;3.25;;;1.10;;
37641;SDS011;23486;51.956;5.888;2023-07-20T05:03:13;4.43;;;1.75;;
37641;SDS011;23486;51.956;5.888;2023-07-20T05:05:39;2.88;;;1.70;;
37641;SDS011;23486;51.956;5.888;2023-07-20T05:08:05;3.63;;;1.75;;
37641;SDS011;23486;51.956;5.888;2023-07-20T05:10:31;3.65;;;1.83;;
37641;SDS011;23486;51.956;5.888;2023-07-20T05:12:57;2.92;;;1.50;;
37641;SDS011;23486;51.956;5.888;2023-07-20T05:15:23;4.00;;;1.70;;
37641;SDS011;23486;51.956;5.888;2023-07-20T05:17:49;3.88;;;1.92;;
37641;SDS011;23486;51.956;5.888;2023-07-20T05:20:14;3.05;;;1.38;;
37641;SDS011;23486;51.956;5.888;2023-07-20T05:22:40;3.90;;;1.88;;
37641;SDS011;23486;51.956;5.888;2023-07-20T05:25:08;5.43;;;2.53;;
37641;SDS011;23486;51.956;5.888;2023-07-20T05:27:37;2.95;;;1.65;;
37641;SDS011;23486;51.956;5.888;2023-07-20T05:30:04;3.15;;;1.30;;
37641;SDS011;23486;51.956;5.888;2023-07-20T05:32:31;3.45;;;2.28;;
37641;SDS011;23486;51.956;5.888;2023-07-20T05:34:57;3.05;;;1.65;;
37641;SDS011;23486;51.956;5.888;2023-07-20T05:37:22;3.72;;;1.67;;
37641;SDS011;23486;51.956;5.888;2023-07-20T05:39:48;2.95;;;1.25;;
37641;SDS011;23486;51.956;5.888;2023-07-20T05:42:13;2.15;;;0.93;;
37641;SDS011;23486;51.956;5.888;2023-07-20T05:44:39;3.60;;;1.42;;
37641;SDS011;23486;51.956;5.888;2023-07-20T05:47:06;3.17;;;1.13;;
37641;SDS011;23486;51.956;5.888;2023-07-20T05:49:31;2.58;;;1.00;;
37641;SDS011;23486;51.956;5.888;2023-07-20T05:51:57;2.72;;;0.70;;
37641;SDS011;23486;51.956;5.888;2023-07-20T05:54:26;2.03;;;0.70;;
37641;SDS011;23486;51.956;5.888;2023-07-20T05:56:52;2.83;;;0.60;;
37641;SDS011;23486;51.956;5.888;2023-07-20T05:59:18;2.10;;;0.52;;
37641;SDS011;23486;51.956;5.888;2023-07-20T06:01:48;1.38;;;0.50;;
37641;SDS011;23486;51.956;5.888;2023-07-20T06:04:14;1.10;;;0.40;;
37641;SDS011;23486;51.956;5.888;2023-07-20T06:06:40;1.67;;;0.70;;
37641;SDS011;23486;51.956;5.888;2023-07-20T06:09:06;1.27;;;0.40;;
37641;SDS011;23486;51.956;5.888;2023-07-20T06:11:35;2.38;;;0.60;;
37641;SDS011;23486;51.956;5.888;2023-07-20T06:14:01;2.97;;;0.40;;
37641;SDS011;23486;51.956;5.888;2023-07-20T06:16:26;1.13;;;0.45;;
37641;SDS011;23486;51.956;5.888;2023-07-20T06:18:52;1.50;;;0.40;;
37641;SDS011;23486;51.956;5.888;2023-07-20T06:21:18;3.60;;;0.60;;
37641;SDS011;23486;51.956;5.888;2023-07-20T06:23:43;2.42;;;0.60;;
37641;SDS011;23486;51.956;5.888;2023-07-20T06:26:09;1.55;;;0.38;;
37641;SDS011;23486;51.956;5.888;2023-07-20T06:28:35;1.00;;;0.30;;
37641;SDS011;23486;51.956;5.888;2023-07-20T06:31:01;1.95;;;0.38;;
37641;SDS011;23486;51.956;5.888;2023-07-20T06:33:27;1.00;;;0.30;;
37641;SDS011;23486;51.956;5.888;2023-07-20T06:35:53;1.33;;;0.30;;
37641;SDS011;23486;51.956;5.888;2023-07-20T06:38:19;0.50;;;0.20;;
37641;SDS011;23486;51.956;5.888;2023-07-20T06:40:47;0.85;;;0.20;;
37641;SDS011;23486;51.956;5.888;2023-07-20T06:43:13;1.58;;;0.30;;
37641;SDS011;23486;51.956;5.888;2023-07-20T06:45:39;0.90;;;0.20;;
37641;SDS011;23486;51.956;5.888;2023-07-20T06:48:05;0.50;;;0.20;;
37641;SDS011;23486;51.956;5.888;2023-07-20T06:50:31;1.00;;;0.20;;
37641;SDS011;23486;51.956;5.888;2023-07-20T06:52:58;0.68;;;0.20;;
37641;SDS011;23486;51.956;5.888;2023-07-20T06:55:25;0.85;;;0.20;;
37641;SDS011;23486;51.956;5.888;2023-07-20T06:57:50;0.65;;;0.20;;
37641;SDS011;23486;51.956;5.888;2023-07-20T07:00:16;0.55;;;0.10;;
37641;SDS011;23486;51.956;5.888;2023-07-20T07:02:43;1.35;;;0.28;;
37641;SDS011;23486;51.956;5.888;2023-07-20T07:05:08;0.95;;;0.20;;
37641;SDS011;23486;51.956;5.888;2023-07-20T07:07:34;1.38;;;0.20;;
37641;SDS011;23486;51.956;5.888;2023-07-20T07:10:00;1.08;;;0.20;;
37641;SDS011;23486;51.956;5.888;2023-07-20T07:12:28;1.63;;;0.20;;
37641;SDS011;23486;51.956;5.888;2023-07-20T07:14:54;2.20;;;0.20;;
37641;SDS011;23486;51.956;5.888;2023-07-20T07:17:19;1.40;;;0.20;;
37641;SDS011;23486;51.956;5.888;2023-07-20T07:19:45;1.48;;;0.20;;
37641;SDS011;23486;51.956;5.888;2023-07-20T07:22:11;0.50;;;0.17;;
37641;SDS011;23486;51.956;5.888;2023-07-20T07:24:36;0.38;;;0.10;;
37641;SDS011;23486;51.956;5.888;2023-07-20T07:27:02;0.82;;;0.10;;
37641;SDS011;23486;51.956;5.888;2023-07-20T07:29:28;0.68;;;0.20;;
37641;SDS011;23486;51.956;5.888;2023-07-20T07:31:54;0.52;;;0.10;;
37641;SDS011;23486;51.956;5.888;2023-07-20T07:34:20;0.98;;;0.20;;
37641;SDS011;23486;51.956;5.888;2023-07-20T07:36:46;0.30;;;0.10;;
37641;SDS011;23486;51.956;5.888;2023-07-20T07:39:12;1.23;;;0.20;;
37641;SDS011;23486;51.956;5.888;2023-07-20T07:41:38;0.40;;;0.17;;
37641;SDS011;23486;51.956;5.888;2023-07-20T07:44:03;0.63;;;0.20;;
37641;SDS011;23486;51.956;5.888;2023-07-20T07:46:29;0.52;;;0.10;;
37641;SDS011;23486;51.956;5.888;2023-07-20T07:48:55;0.30;;;0.10;;
37641;SDS011;23486;51.956;5.888;2023-07-20T07:51:21;4.47;;;0.38;;
37641;SDS011;23486;51.956;5.888;2023-07-20T07:53:46;3.20;;;0.25;;
37641;SDS011;23486;51.956;5.888;2023-07-20T07:56:14;3.00;;;0.20;;
37641;SDS011;23486;51.956;5.888;2023-07-20T07:58:39;0.82;;;0.30;;
37641;SDS011;23486;51.956;5.888;2023-07-20T08:01:05;1.27;;;0.20;;
37641;SDS011;23486;51.956;5.888;2023-07-20T08:03:31;1.25;;;0.20;;
37641;SDS011;23486;51.956;5.888;2023-07-20T08:05:56;1.10;;;0.20;;
37641;SDS011;23486;51.956;5.888;2023-07-20T08:08:23;2.03;;;0.20;;
37641;SDS011;23486;51.956;5.888;2023-07-20T08:10:49;1.85;;;0.20;;
37641;SDS011;23486;51.956;5.888;2023-07-20T08:13:18;1.15;;;0.25;;
37641;SDS011;23486;51.956;5.888;2023-07-20T08:15:45;0.73;;;0.20;;
37641;SDS011;23486;51.956;5.888;2023-07-20T08:18:14;0.60;;;0.10;;
37641;SDS011;23486;51.956;5.888;2023-07-20T08:20:39;0.70;;;0.10;;
37641;SDS011;23486;51.956;5.888;2023-07-20T08:23:08;0.75;;;0.10;;
37641;SDS011;23486;51.956;5.888;2023-07-20T08:25:35;0.85;;;0.20;;
37641;SDS011;23486;51.956;5.888;2023-07-20T08:28:04;1.10;;;0.17;;
37641;SDS011;23486;51.956;5.888;2023-07-20T08:30:39;0.63;;;0.10;;
37641;SDS011;23486;51.956;5.888;2023-07-20T08:33:18;0.47;;;0.10;;
37641;SDS011;23486;51.956;5.888;2023-07-20T08:35:48;0.85;;;0.20;;
37641;SDS011;23486;51.956;5.888;2023-07-20T08:38:14;1.85;;;0.20;;
37641;SDS011;23486;51.956;5.888;2023-07-20T08:40:48;0.35;;;0.10;;
37641;SDS011;23486;51.956;5.888;2023-07-20T08:43:15;1.40;;;0.20;;
37641;SDS011;23486;51.956;5.888;2023-07-20T08:45:44;0.77;;;0.10;;
37641;SDS011;23486;51.956;5.888;2023-07-20T08:48:10;1.00;;;0.20;;
37641;SDS011;23486;51.956;5.888;2023-07-20T08:50:37;0.55;;;0.20;;
37641;SDS011;23486;51.956;5.888;2023-07-20T08:53:03;0.75;;;0.17;;
37641;SDS011;23486;51.956;5.888;2023-07-20T08:55:29;0.88;;;0.20;;
37641;SDS011;23486;51.956;5.888;2023-07-20T08:57:57;0.80;;;0.10;;
37641;SDS011;23486;51.956;5.888;2023-07-20T09:00:24;0.98;;;0.10;;
37641;SDS011;23486;51.956;5.888;2023-07-20T09:02:51;1.73;;;0.43;;
37641;SDS011;23486;51.956;5.888;2023-07-20T09:05:18;1.02;;;0.20;;
37641;SDS011;23486;51.956;5.888;2023-07-20T09:07:45;1.10;;;0.20;;
37641;SDS011;23486;51.956;5.888;2023-07-20T09:10:11;1.25;;;0.20;;
37641;SDS011;23486;51.956;5.888;2023-07-20T09:12:41;1.35;;;0.20;;
37641;SDS011;23486;51.956;5.888;2023-07-20T09:15:08;0.82;;;0.20;;
37641;SDS011;23486;51.956;5.888;2023-07-20T09:17:34;0.50;;;0.17;;
37641;SDS011;23486;51.956;5.888;2023-07-20T09:20:04;0.20;;;0.10;;
37641;SDS011;23486;51.956;5.888;2023-07-20T09:22:33;0.70;;;0.10;;
37641;SDS011;23486;51.956;5.888;2023-07-20T09:24:59;0.55;;;0.10;;
37641;SDS011;23486;51.956;5.888;2023-07-20T09:30:27;1.65;;;0.30;;
37641;SDS011;23486;51.956;5.888;2023-07-20T09:32:53;2.75;;;0.47;;
37641;SDS011;23486;51.956;5.888;2023-07-20T09:35:22;2.08;;;0.13;;
37641;SDS011;23486;51.956;5.888;2023-07-20T09:37:53;1.60;;;0.20;;
37641;SDS011;23486;51.956;5.888;2023-07-20T09:40:22;0.28;;;0.10;;
37641;SDS011;23486;51.956;5.888;2023-07-20T09:42:49;0.40;;;0.10;;
37641;SDS011;23486;51.956;5.888;2023-07-20T09:45:18;0.47;;;0.10;;
37641;SDS011;23486;51.956;5.888;2023-07-20T09:47:44;2.03;;;0.20;;
37641;SDS011;23486;51.956;5.888;2023-07-20T09:50:10;1.60;;;0.20;;
37641;SDS011;23486;51.956;5.888;2023-07-20T09:52:42;1.63;;;0.17;;
37641;SDS011;23486;51.956;5.888;2023-07-20T09:55:12;0.50;;;0.10;;
37641;SDS011;23486;51.956;5.888;2023-07-20T09:57:38;1.55;;;0.20;;
37641;SDS011;23486;51.956;5.888;2023-07-20T10:00:05;4.65;;;0.20;;
37641;SDS011;23486;51.956;5.888;2023-07-20T10:02:44;1.08;;;0.20;;
37641;SDS011;23486;51.956;5.888;2023-07-20T10:05:13;1.60;;;0.25;;
37641;SDS011;23486;51.956;5.888;2023-07-20T10:07:44;1.00;;;0.28;;
37641;SDS011;23486;51.956;5.888;2023-07-20T10:10:13;1.63;;;0.20;;
37641;SDS011;23486;51.956;5.888;2023-07-20T10:12:42;0.55;;;0.10;;
37641;SDS011;23486;51.956;5.888;2023-07-20T10:18:28;0.63;;;0.17;;
37641;SDS011;23486;51.956;5.888;2023-07-20T10:20:42;0.50;;;0.10;;
37641;SDS011;23486;51.956;5.888;2023-07-20T10:23:09;0.50;;;0.10;;
37641;SDS011;23486;51.956;5.888;2023-07-20T10:25:36;0.80;;;0.10;;
37641;SDS011;23486;51.956;5.888;2023-07-20T10:28:04;0.90;;;0.20;;
37641;SDS011;23486;51.956;5.888;2023-07-20T10:30:36;0.22;;;0.10;;
37641;SDS011;23486;51.956;5.888;2023-07-20T10:33:03;1.02;;;0.10;;
37641;SDS011;23486;51.956;5.888;2023-07-20T10:35:30;0.40;;;0.10;;
37641;SDS011;23486;51.956;5.888;2023-07-20T10:38:15;0.40;;;0.10;;
37641;SDS011;23486;51.956;5.888;2023-07-20T10:40:40;1.02;;;0.20;;
37641;SDS011;23486;51.956;5.888;2023-07-20T10:43:07;1.50;;;0.20;;
37641;SDS011;23486;51.956;5.888;2023-07-20T10:48:28;0.77;;;0.20;;
37641;SDS011;23486;51.956;5.888;2023-07-20T10:51:13;0.70;;;0.20;;
37641;SDS011;23486;51.956;5.888;2023-07-20T10:53:44;0.50;;;0.10;;
37641;SDS011;23486;51.956;5.888;2023-07-20T10:56:15;1.10;;;0.10;;
37641;SDS011;23486;51.956;5.888;2023-07-20T10:58:45;0.60;;;0.10;;
37641;SDS011;23486;51.956;5.888;2023-07-20T11:01:14;0.30;;;0.10;;
37641;SDS011;23486;51.956;5.888;2023-07-20T11:03:42;0.65;;;0.10;;
37641;SDS011;23486;51.956;5.888;2023-07-20T11:06:51;0.77;;;0.10;;
37641;SDS011;23486;51.956;5.888;2023-07-20T11:09:05;1.02;;;0.10;;
37641;SDS011;23486;51.956;5.888;2023-07-20T11:11:33;0.17;;;0.00;;
37641;SDS011;23486;51.956;5.888;2023-07-20T11:14:04;0.40;;;0.10;;
37641;SDS011;23486;51.956;5.888;2023-07-20T11:16:37;0.32;;;0.10;;
37641;SDS011;23486;51.956;5.888;2023-07-20T11:21:58;0.20;;;0.10;;
37641;SDS011;23486;51.956;5.888;2023-07-20T11:24:24;2.03;;;0.30;;
37641;SDS011;23486;51.956;5.888;2023-07-20T11:26:50;1.15;;;0.20;;
37641;SDS011;23486;51.956;5.888;2023-07-20T11:29:18;1.35;;;0.25;;
37641;SDS011;23486;51.956;5.888;2023-07-20T11:31:45;0.45;;;0.10;;
37641;SDS011;23486;51.956;5.888;2023-07-20T11:34:16;0.88;;;0.17;;
37641;SDS011;23486;51.956;5.888;2023-07-20T11:36:45;0.50;;;0.10;;
37641;SDS011;23486;51.956;5.888;2023-07-20T11:39:14;0.60;;;0.10;;
37641;SDS011;23486;51.956;5.888;2023-07-20T11:41:44;0.77;;;0.20;;
37641;SDS011;23486;51.956;5.888;2023-07-20T11:44:17;0.88;;;0.20;;
37641;SDS011;23486;51.956;5.888;2023-07-20T11:46:43;1.50;;;0.20;;
37641;SDS011;23486;51.956;5.888;2023-07-20T11:49:10;0.60;;;0.20;;
37641;SDS011;23486;51.956;5.888;2023-07-20T11:51:36;2.40;;;0.20;;
37641;SDS011;23486;51.956;5.888;2023-07-20T11:54:03;0.95;;;0.13;;
37641;SDS011;23486;51.956;5.888;2023-07-20T11:56:30;1.38;;;0.30;;
37641;SDS011;23486;51.956;5.888;2023-07-20T11:58:56;1.52;;;0.20;;
37641;SDS011;23486;51.956;5.888;2023-07-20T12:01:25;1.90;;;0.30;;
37641;SDS011;23486;51.956;5.888;2023-07-20T12:03:56;1.05;;;0.28;;
37641;SDS011;23486;51.956;5.888;2023-07-20T12:06:23;0.55;;;0.20;;
37641;SDS011;23486;51.956;5.888;2023-07-20T12:08:56;0.85;;;0.20;;
37641;SDS011;23486;51.956;5.888;2023-07-20T12:11:35;1.13;;;0.20;;
37641;SDS011;23486;51.956;5.888;2023-07-20T12:14:07;0.98;;;0.17;;
37641;SDS011;23486;51.956;5.888;2023-07-20T12:16:34;0.90;;;0.20;;
37641;SDS011;23486;51.956;5.888;2023-07-20T12:19:01;1.08;;;0.20;;
37641;SDS011;23486;51.956;5.888;2023-07-20T12:21:31;0.90;;;0.30;;
37641;SDS011;23486;51.956;5.888;2023-07-20T12:23:58;1.30;;;0.28;;
37641;SDS011;23486;51.956;5.888;2023-07-20T12:26:24;1.02;;;0.30;;
37641;SDS011;23486;51.956;5.888;2023-07-20T12:28:51;0.80;;;0.20;;
37641;SDS011;23486;51.956;5.888;2023-07-20T12:31:18;0.82;;;0.25;;
37641;SDS011;23486;51.956;5.888;2023-07-20T12:33:44;0.63;;;0.20;;
37641;SDS011;23486;51.956;5.888;2023-07-20T12:36:10;0.93;;;0.20;;
37641;SDS011;23486;51.956;5.888;2023-07-20T12:38:35;0.82;;;0.25;;
37641;SDS011;23486;51.956;5.888;2023-07-20T12:41:01;1.42;;;0.20;;
37641;SDS011;23486;51.956;5.888;2023-07-20T12:43:27;0.65;;;0.17;;
37641;SDS011;23486;51.956;5.888;2023-07-20T12:45:54;0.90;;;0.25;;
37641;SDS011;23486;51.956;5.888;2023-07-20T12:48:20;0.60;;;0.10;;
37641;SDS011;23486;51.956;5.888;2023-07-20T12:50:46;0.47;;;0.10;;
37641;SDS011;23486;51.956;5.888;2023-07-20T12:53:12;0.17;;;0.10;;
37641;SDS011;23486;51.956;5.888;2023-07-20T12:55:38;0.45;;;0.10;;
37641;SDS011;23486;51.956;5.888;2023-07-20T12:58:07;1.02;;;0.20;;
37641;SDS011;23486;51.956;5.888;2023-07-20T13:00:33;0.60;;;0.10;;
37641;SDS011;23486;51.956;5.888;2023-07-20T13:02:59;0.90;;;0.20;;
37641;SDS011;23486;51.956;5.888;2023-07-20T13:05:25;1.00;;;0.10;;
37641;SDS011;23486;51.956;5.888;2023-07-20T13:07:50;1.38;;;0.17;;
37641;SDS011;23486;51.956;5.888;2023-07-20T13:10:16;0.63;;;0.10;;
37641;SDS011;23486;51.956;5.888;2023-07-20T13:12:42;1.42;;;0.15;;
37641;SDS011;23486;51.956;5.888;2023-07-20T13:15:08;0.60;;;0.10;;
37641;SDS011;23486;51.956;5.888;2023-07-20T13:17:36;0.52;;;0.20;;
37641;SDS011;23486;51.956;5.888;2023-07-20T13:20:04;0.50;;;0.10;;
37641;SDS011;23486;51.956;5.888;2023-07-20T13:22:32;0.73;;;0.10;;
37641;SDS011;23486;51.956;5.888;2023-07-20T13:24:58;0.55;;;0.10;;
37641;SDS011;23486;51.956;5.888;2023-07-20T13:27:23;0.52;;;0.13;;
37641;SDS011;23486;51.956;5.888;2023-07-20T13:29:51;0.40;;;0.10;;
37641;SDS011;23486;51.956;5.888;2023-07-20T13:32:16;0.52;;;0.10;;
37641;SDS011;23486;51.956;5.888;2023-07-20T13:34:43;0.50;;;0.00;;
37641;SDS011;23486;51.956;5.888;2023-07-20T13:37:13;1.90;;;0.20;;
37641;SDS011;23486;51.956;5.888;2023-07-20T13:39:39;0.32;;;0.10;;
37641;SDS011;23486;51.956;5.888;2023-07-20T13:42:05;0.98;;;0.20;;
37641;SDS011;23486;51.956;5.888;2023-07-20T13:44:31;0.85;;;0.20;;
37641;SDS011;23486;51.956;5.888;2023-07-20T13:46:57;0.88;;;0.10;;
37641;SDS011;23486;51.956;5.888;2023-07-20T13:49:23;0.47;;;0.10;;
37641;SDS011;23486;51.956;5.888;2023-07-20T13:51:49;0.80;;;0.20;;
37641;SDS011;23486;51.956;5.888;2023-07-20T13:54:15;0.52;;;0.10;;
37641;SDS011;23486;51.956;5.888;2023-07-20T13:56:40;0.60;;;0.15;;
37641;SDS011;23486;51.956;5.888;2023-07-20T13:59:06;1.40;;;0.10;;
37641;SDS011;23486;51.956;5.888;2023-07-20T14:01:32;0.85;;;0.10;;
37641;SDS011;23486;51.956;5.888;2023-07-20T14:03:59;1.58;;;0.10;;
37641;SDS011;23486;51.956;5.888;2023-07-20T14:06:25;0.68;;;0.10;;
37641;SDS011;23486;51.956;5.888;2023-07-20T14:08:51;0.65;;;0.20;;
37641;SDS011;23486;51.956;5.888;2023-07-20T14:11:18;0.50;;;0.10;;
37641;SDS011;23486;51.956;5.888;2023-07-20T14:13:44;1.42;;;0.13;;
37641;SDS011;23486;51.956;5.888;2023-07-20T14:16:09;0.90;;;0.20;;
37641;SDS011;23486;51.956;5.888;2023-07-20T14:18:35;0.70;;;0.10;;
37641;SDS011;23486;51.956;5.888;2023-07-20T14:21:01;2.05;;;0.20;;
37641;SDS011;23486;51.956;5.888;2023-07-20T14:23:28;0.65;;;0.10;;
37641;SDS011;23486;51.956;5.888;2023-07-20T14:25:54;0.50;;;0.10;;
37641;SDS011;23486;51.956;5.888;2023-07-20T14:28:20;0.20;;;0.00;;
37641;SDS011;23486;51.956;5.888;2023-07-20T14:30:45;0.55;;;0.10;;
37641;SDS011;23486;51.956;5.888;2023-07-20T14:33:11;0.55;;;0.10;;
37641;SDS011;23486;51.956;5.888;2023-07-20T14:35:37;0.75;;;0.17;;
37641;SDS011;23486;51.956;5.888;2023-07-20T14:38:03;0.70;;;0.10;;
37641;SDS011;23486;51.956;5.888;2023-07-20T14:40:28;0.32;;;0.10;;
37641;SDS011;23486;51.956;5.888;2023-07-20T14:42:55;1.23;;;0.10;;
37641;SDS011;23486;51.956;5.888;2023-07-20T14:45:21;0.40;;;0.10;;
37641;SDS011;23486;51.956;5.888;2023-07-20T14:47:47;1.38;;;0.00;;
37641;SDS011;23486;51.956;5.888;2023-07-20T14:50:18;1.48;;;0.20;;
37641;SDS011;23486;51.956;5.888;2023-07-20T14:52:47;0.50;;;0.10;;
37641;SDS011;23486;51.956;5.888;2023-07-20T14:55:13;0.40;;;0.20;;
37641;SDS011;23486;51.956;5.888;2023-07-20T14:57:39;0.70;;;0.20;;
37641;SDS011;23486;51.956;5.888;2023-07-20T15:00:05;0.43;;;0.10;;
37641;SDS011;23486;51.956;5.888;2023-07-20T15:02:37;1.02;;;0.20;;
37641;SDS011;23486;51.956;5.888;2023-07-20T15:05:02;0.75;;;0.10;;
37641;SDS011;23486;51.956;5.888;2023-07-20T15:07:31;0.80;;;0.20;;
37641;SDS011;23486;51.956;5.888;2023-07-20T15:09:57;1.00;;;0.35;;